Flat Rock, Indiana
Current Conditions -  °F | °C
As of 12:53 PM on Tuesday 21 Oct 2014 (Local Time) from KGEZ Reporting Station
Overcast Overcast  
Wind Chill: 57°   Ceiling: 5500
Heat Index: 57°   Visibility: 10mi
Dew Point: 41°   Wind: 13mph
Humidity: 55%   Direction: 340°NNW
Pressure: 30.07"   Gusts: NA
Location:  39.36°N, 85.83°W
Report Text: KGEZ 211653Z AUTO 34011KT 10SM SCT033 SCT045 OVC055 14/05 A3007 RMK AO2 SLP184 T01390050
Loading
Personal Weather Stations






























Interactive Weather Map
Tropical Storm Tracking
New forecast layout! Learn more

10-Day Weather Forecast

Advertisements
Track Severe Weather on mobile